• Join FlightAware (Why Join?)
  • Login
  • US Flag 
04:47AM EDT


 

Airport Tracker/Info


-or-


 

Live Flight TrackerFlight Track Log ✈ EJA929 ✈ 14-Oct-2013 ✈ KHDN - KAPC

Flight Track Log - Related Links

Times and Time Zones

All times are in EDT time to prevent confusion due to time zone crossing. See the EJA929 flight status page for this flight to view local times or setup timezone preferences in your user account.

Time Position Orientation Groundspeed Altitude Reporting Facility
EDT Latitude Longitude Course Direction KTS MPH feet Rate Location/Type
08:46AM 40.4756 -107.2022 246° West 23 26 6,600  Level Denver Center
08:47AM 40.4867 -107.2408 291° West 198 228 7,500 2,520 Climbing Denver Center
08:48AM 40.4669 -107.3239 253° West 213 245 11,700 3,480 Climbing Denver Center
08:49AM 40.2982 -108.1074 252° West  Level FlightAware Approximate
08:49AM 40.4397 -107.4086 247° West 261 300 14,600  Level Denver Center
08:50AM 40.2619 -108.2526 252° West  Level FlightAware Approximate
08:50AM 40.4153 -107.5125 253° West 308 354 16,700  Level Denver Center
08:51AM 40.2335 -108.3994 252° West  Level FlightAware Approximate
08:51AM 40.3883 -107.6408 255° West 328 377 18,800  Level Denver Center
08:52AM 40.1986 -108.5448 261° West  Level FlightAware Approximate
08:52AM 40.3656 -107.7578 256° West 340 391 20,700  Level Denver Center
08:53AM 40.1744 -108.6934 246° West  Level FlightAware Approximate
08:53AM 40.3400 -107.8819 255° West 362 417 22,700  Level Denver Center
08:54AM 40.3083 -108.0411 255° West 399 459 24,900 1,980 Climbing Denver Center
08:55AM 40.2797 -108.1856 255° West 423 487 26,800 1,920 Climbing Denver Center
08:56AM 40.2475 -108.3356 254° West 441 507 28,800 2,040 Climbing Denver Center
08:57AM 40.2222 -108.4628 255° West 451 519 30,500 2,280 Climbing Salt Lake Center
08:58AM 40.1847 -108.6422 255° West 458 527 33,000 1,680 Climbing Salt Lake Center
08:59AM 40.1542 -108.7942 255° West 455 524 34,000 420 Climbing Salt Lake Center
09:00AM 40.1086 -109.0058 254° West 472 543 34,000  Level Denver Center
09:01AM 40.0800 -109.1397 254° West 479 551 34,000  Level Salt Lake Center
09:02AM 40.0458 -109.2981 254° West 477 549 34,000  Level Salt Lake Center
09:03AM 40.0114 -109.4572 254° West 477 549 34,000 780 Level Salt Lake Center
09:04AM 39.9711 -109.6400 254° West 473 544 35,600 1,500 Climbing Salt Lake Center
09:05AM 39.9383 -109.7919 254° West 459 528 37,100 1,380 Climbing Salt Lake Center
09:06AM 39.9056 -109.9403 254° West 449 517 38,500 1,320 Climbing Salt Lake Center
09:07AM 39.8669 -110.1114 254° West 443 510 39,800 720 Climbing Salt Lake Center
09:08AM 39.8342 -110.2586 254° West 442 509 40,000 60 Climbing Salt Lake Center
09:09AM 39.8003 -110.4106 254° West 454 522 40,000 420 Level Salt Lake Center
09:10AM 39.7594 -110.5864 253° West 455 524 40,900 840 Climbing Salt Lake Center
09:11AM 39.7272 -110.7350 254° West 449 517 41,800 840 Climbing Salt Lake Center
09:12AM 39.6925 -110.8800 253° West 441 507 42,700 540 Climbing Salt Lake Center
09:13AM 39.6539 -111.0497 254° West 440 506 43,000 120 Climbing Salt Lake Center
09:14AM 39.6189 -111.1992 253° West 448 516 43,000  Level Salt Lake Center
09:15AM 39.5797 -111.3589 252° West 457 526 43,000  Level Salt Lake Center
09:16AM 39.5433 -111.5150 253° West 453 521 43,000  Level Salt Lake Center
09:17AM 39.5064 -111.6672 253° West 445 512 43,000  Level Salt Lake Center
09:18AM 39.4706 -111.8192 253° West 442 509 43,000  Level Salt Lake Center
09:19AM 39.4333 -111.9728 253° West 446 513 43,000  Level Salt Lake Center
09:20AM 39.3956 -112.1267 252° West 448 516 43,000  Level Salt Lake Center
09:21AM 39.3583 -112.2803 253° West 450 518 43,000  Level Salt Lake Center
09:22AM 39.3219 -112.4344 253° West 450 518 43,000  Level Salt Lake Center
09:23AM 39.2847 -112.5861 252° West 446 513 43,000  Level Salt Lake Center
09:24AM 39.2486 -112.7436 254° West 446 513 43,000  Level Salt Lake Center
09:25AM 39.2144 -112.9036 255° West 458 527 43,000  Level Salt Lake Center
09:26AM 39.1792 -113.0581 254° West 453 521 43,000  Level Salt Lake Center
09:28AM 39.1550 -113.2136 259° West 447 514 43,000  Level Salt Lake Center
09:29AM 39.1308 -113.4031 261° West 449 517 43,000  Level Salt Lake Center
09:30AM 39.1083 -113.5622 260° West 452 520 43,000  Level Salt Lake Center
09:31AM 39.0886 -113.7211 261° West 452 520 43,000  Level Salt Lake Center
09:32AM 39.0664 -113.8797 260° West 452 520 43,000  Level Salt Lake Center
09:33AM 39.0442 -114.0406 260° West 457 526 43,000  Level Salt Lake Center
09:34AM 39.0228 -114.1983 260° West 453 521 43,000  Level Salt Lake Center
09:35AM 39.0011 -114.3567 260° West 452 520 43,000  Level Salt Lake Center
09:36AM 38.9792 -114.5153 260° West 452 520 43,000  Level Salt Lake Center
09:37AM 38.9558 -114.6728 259° West 451 519 43,000  Level Salt Lake Center
09:38AM 38.9339 -114.8311 260° West 452 520 43,000  Level Salt Lake Center
09:39AM 38.9108 -114.9881 259° West 451 519 43,000  Level Salt Lake Center
09:40AM 38.8872 -115.1458 259° West 451 519 43,000  Level Salt Lake Center
09:41AM 38.8597 -115.3344 259° West 450 518 43,000  Level Salt Lake Center
09:42AM 38.8375 -115.4761 259° West 452 520 43,000  Level Salt Lake Center
09:43AM 38.8147 -115.6331 259° West 449 517 43,000  Level Salt Lake Center
09:44AM 38.7903 -115.7900 259° West 450 518 43,000  Level Salt Lake Center
09:45AM 38.7658 -115.9483 259° West 452 520 43,000  Level Salt Lake Center
09:46AM 38.7414 -116.1064 259° West 453 521 43,000  Level Salt Lake Center
09:47AM 38.7114 -116.2967 259° West 454 522 43,000  Level Salt Lake Center
09:48AM 38.6864 -116.4556 259° West 456 525 43,000  Level Salt Lake Center
09:49AM 38.6606 -116.6150 258° West 460 529 43,000  Level Salt Lake Center
09:50AM 38.6353 -116.7769 259° West 464 534 43,000  Level Salt Lake Center
09:51AM 38.6100 -116.9367 259° West 463 533 43,000  Level Salt Lake Center
09:52AM 38.6006 -117.1000 266° West 463 533 43,000  Level Salt Lake Center
09:53AM 38.5919 -117.2614 266° West 460 529 43,000  Level Oakland Center
09:54AM 38.5836 -117.4239 266° West 462 532 43,000  Level Oakland Center
09:55AM 38.5747 -117.5844 266° West 458 527 43,000  Level Oakland Center
09:56AM 38.5656 -117.7450 266° West 456 525 43,000  Level Oakland Center
09:57AM 38.5561 -117.9053 266° West 455 524 43,000  Level Oakland Center
09:58AM 38.5464 -118.0647 266° West 452 520 43,000  Level Oakland Center
09:59AM 38.5353 -118.2408 265° West 450 518 43,000  Level Oakland Center
10:00AM 38.5256 -118.4008 266° West 451 519 43,000  Level Oakland Center
10:01AM 38.5147 -118.5603 265° West 451 519 43,000  Level Oakland Center
10:02AM 38.5042 -118.7219 265° West 454 522 43,000  Level Oakland Center
10:03AM 38.4933 -118.8822 265° West 453 521 43,000  Level Oakland Center
10:04AM 38.4825 -119.0442 265° West 455 524 43,000  Level Oakland Center
10:05AM 38.4717 -119.2044 265° West 453 521 43,000  Level Oakland Center
10:06AM 38.4592 -119.3650 264° West 454 522 43,000 -360 Level Oakland Center
10:07AM 38.4478 -119.5275 265° West 458 527 42,300 -1,680 Descending Oakland Center
10:08AM 38.4367 -119.6875 265° West 454 522 39,600 -2,700 Descending Oakland Center
10:09AM 38.4208 -119.8669 264° West 459 528 36,900 -2,520 Descending Oakland Center
10:10AM 38.4094 -120.0292 265° West 459 528 34,500 -2,460 Descending Oakland Center
10:11AM 38.3956 -120.1975 264° West 474 545 31,900 -2,580 Descending Oakland Center
10:12AM 38.3811 -120.3697 264° West 486 559 29,300 -2,580 Descending Oakland Center
10:13AM 38.3678 -120.5433 264° West 491 565 26,700 -2,520 Descending Oakland Center
10:14AM 38.3542 -120.7106 264° West 481 554 24,200 -2,340 Descending Oakland Center
10:15AM 38.3406 -120.8719 264° West 466 536 22,000 -1,140 Descending Oakland Center
10:16AM 38.3275 -121.0294 264° West 449 517 22,000 -360 Level Oakland Center
10:17AM 38.3167 -121.1333 262° West 447 514 21,500 -1,320 Descending Northern Cal TRACON
10:18AM 38.3000 -121.2833 262° West 435 501 20,000 -1,440 Descending Northern Cal TRACON
10:19AM 38.3000 -121.4333 270° West 415 478 18,700 -2,580 Descending Northern Cal TRACON
10:21AM 38.1567 -121.7078 236° Southwest 376 433 10,900 -2,640 Descending Oakland Center
10:22AM 38.1686 -121.8200 278° West 324 373 9,600 -1,920 Descending Oakland Center
10:23AM 38.1786 -121.9128 278° West 279 321 7,100 -2,280 Descending Oakland Center
10:24AM 38.1867 -122.0025 277° West 262 302 5,000 -1,320 Descending Oakland Center
10:25AM 38.1950 -122.0906 277° West 257 296 4,500 -900 Descending Oakland Center
10:26AM 38.2028 -122.1733 277° West 243 280 3,200 -900 Descending Oakland Center
10:27AM 38.2325 -122.2114 315° West 180 207 2,700 -1,080 Descending Oakland Center
10:28AM 38.2511 -122.2497 302° West 150 173 1,100 -1,620 Descending Oakland Center